Time;durP1;ratioP1;P1;durP2;ratioP2;P2;SDS_P1;SDS_P2;PMS_P1;PMS_P2;Temp;Humidity;BMP_temperature;BMP_pressure;BME280_temperature;BME280_humidity;BME280_pressure;Samples;Min_cycle;Max_cycle;Signal;HPM_P1;HPM_P2
2022/03/23 00:01:22;;;;;;;32.73;20.50;;;;;;;;;;4985247;28;20479;-34
2022/03/23 00:03:49;;;;;;;30.80;19.30;;;;;;;;;;4986429;28;20809;-34
2022/03/23 00:06:17;;;;;;;31.07;19.03;;;;;;;;;;4981037;28;20423;-34
2022/03/23 00:08:44;;;;;;;31.77;19.03;;;;;;;;;;4983104;28;20462;-34
2022/03/23 00:11:10;;;;;;;30.90;19.10;;;;;;;;;;4982317;28;20423;-35
2022/03/23 00:13:39;;;;;;;36.93;20.17;;;;;;;;;;4982375;28;20423;-34
2022/03/23 00:16:05;;;;;;;28.80;19.40;;;;;;;;;;4984145;28;20421;-34
2022/03/23 00:18:32;;;;;;;28.83;18.93;;;;;;;;;;4986975;28;21025;-34
2022/03/23 00:20:58;;;;;;;35.83;19.67;;;;;;;;;;4984683;28;20451;-34
2022/03/23 00:23:25;;;;;;;36.23;20.07;;;;;;;;;;4981623;28;21226;-34
2022/03/23 00:25:51;;;;;;;31.90;19.67;;;;;;;;;;4984562;28;20416;-34
2022/03/23 00:28:18;;;;;;;30.33;19.23;;;;;;;;;;4984508;28;20650;-34
2022/03/23 00:30:44;;;;;;;31.00;19.10;;;;;;;;;;4985149;28;20439;-34
2022/03/23 00:33:10;;;;;;;32.83;19.43;;;;;;;;;;4980614;28;20427;-35
2022/03/23 00:35:36;;;;;;;31.17;18.97;;;;;;;;;;4981696;28;20426;-34
2022/03/23 00:38:02;;;;;;;34.03;19.13;;;;;;;;;;4983940;28;20561;-34
2022/03/23 00:40:29;;;;;;;31.50;18.57;;;;;;;;;;4981207;28;20528;-35
2022/03/23 00:42:59;;;;;;;32.97;18.83;;;;;;;;;;4982857;28;20427;-34
2022/03/23 00:45:26;;;;;;;29.07;18.10;;;;;;;;;;4982381;28;20423;-34
2022/03/23 00:47:52;;;;;;;33.57;18.67;;;;;;;;;;4966666;28;20453;-34
2022/03/23 00:50:18;;;;;;;30.93;17.73;;;;;;;;;;4979313;28;20518;-35
2022/03/23 00:52:46;;;;;;;26.87;18.20;;;;;;;;;;4980324;28;20615;-34
2022/03/23 00:55:13;;;;;;;27.77;17.03;;;;;;;;;;4983727;28;20891;-35
2022/03/23 00:57:39;;;;;;;28.93;18.03;;;;;;;;;;4985848;28;20450;-34
2022/03/23 01:00:08;;;;;;;32.40;18.07;;;;;;;;;;4982835;28;20455;-35
2022/03/23 01:02:34;;;;;;;29.60;19.03;;;;;;;;;;4983328;28;20435;-35
2022/03/23 01:05:01;;;;;;;29.40;18.07;;;;;;;;;;4983583;28;20955;-35
2022/03/23 01:07:27;;;;;;;32.77;18.30;;;;;;;;;;4985841;28;20431;-35
2022/03/23 01:09:53;;;;;;;27.97;17.70;;;;;;;;;;4986738;28;20442;-35
2022/03/23 01:12:19;;;;;;;30.03;18.57;;;;;;;;;;4986724;28;20422;-35
2022/03/23 01:14:45;;;;;;;27.70;18.53;;;;;;;;;;4983508;28;20431;-34
2022/03/23 01:17:12;;;;;;;30.60;18.80;;;;;;;;;;4989040;28;21167;-35
2022/03/23 01:19:38;;;;;;;27.80;17.37;;;;;;;;;;4987707;28;20453;-35
2022/03/23 01:22:06;;;;;;;29.63;18.60;;;;;;;;;;4983242;28;20926;-34
2022/03/23 01:24:32;;;;;;;28.03;17.23;;;;;;;;;;4985984;28;20469;-35
2022/03/23 01:26:58;;;;;;;27.87;17.73;;;;;;;;;;4987551;28;20423;-35
2022/03/23 01:29:24;;;;;;;28.40;17.17;;;;;;;;;;4987613;28;20752;-35
2022/03/23 01:31:50;;;;;;;25.13;17.13;;;;;;;;;;4982089;28;20493;-35
2022/03/23 01:34:16;;;;;;;26.73;17.50;;;;;;;;;;4985520;28;21269;-35
2022/03/23 01:36:43;;;;;;;24.20;16.90;;;;;;;;;;4987437;28;20469;-35
2022/03/23 01:39:09;;;;;;;30.53;17.10;;;;;;;;;;4984422;28;20462;-35
2022/03/23 01:41:36;;;;;;;30.17;17.13;;;;;;;;;;4984910;28;20835;-35
2022/03/23 01:44:11;;;;;;;30.30;18.20;;;;;;;;;;4988786;28;20492;-35
2022/03/23 01:46:37;;;;;;;32.53;16.83;;;;;;;;;;4982377;28;20502;-35
2022/03/23 01:49:03;;;;;;;26.73;17.30;;;;;;;;;;4980235;28;20756;-38
2022/03/23 01:51:29;;;;;;;27.60;17.30;;;;;;;;;;4985144;28;20438;-35
2022/03/23 01:53:55;;;;;;;28.87;17.87;;;;;;;;;;4986615;28;20887;-35
2022/03/23 01:56:22;;;;;;;28.13;18.23;;;;;;;;;;4987176;28;20424;-35
2022/03/23 01:58:49;;;;;;;28.67;17.93;;;;;;;;;;4982504;28;20423;-36
2022/03/23 02:01:15;;;;;;;29.80;18.10;;;;;;;;;;4985506;28;20615;-35
2022/03/23 02:03:42;;;;;;;34.57;19.30;;;;;;;;;;4964703;28;21154;-35
2022/03/23 02:06:08;;;;;;;29.70;19.23;;;;;;;;;;4983383;28;20430;-35
2022/03/23 02:08:34;;;;;;;30.70;19.23;;;;;;;;;;4984024;28;20423;-36
2022/03/23 02:11:00;;;;;;;30.47;19.73;;;;;;;;;;4986141;28;20912;-35
2022/03/23 02:13:26;;;;;;;32.43;18.63;;;;;;;;;;4986507;28;20489;-35
2022/03/23 02:15:52;;;;;;;32.47;20.27;;;;;;;;;;4986163;28;20580;-35
2022/03/23 02:18:20;;;;;;;30.83;18.83;;;;;;;;;;4965214;28;20888;-35
2022/03/23 02:20:46;;;;;;;33.20;20.20;;;;;;;;;;4965256;28;21002;-35
2022/03/23 02:23:12;;;;;;;35.93;20.37;;;;;;;;;;4964558;28;20423;-35
2022/03/23 02:25:40;;;;;;;35.23;19.40;;;;;;;;;;4984608;28;20631;-35
2022/03/23 02:28:06;;;;;;;31.57;19.53;;;;;;;;;;4983684;28;20424;-35
2022/03/23 02:30:32;;;;;;;29.40;19.20;;;;;;;;;;4988137;28;21471;-35
2022/03/23 02:33:00;;;;;;;29.47;19.40;;;;;;;;;;4982947;28;20706;-35
2022/03/23 02:35:26;;;;;;;32.93;18.73;;;;;;;;;;4979770;28;20676;-35
2022/03/23 02:37:52;;;;;;;30.47;18.93;;;;;;;;;;4980324;28;20430;-35
2022/03/23 02:40:18;;;;;;;29.53;18.33;;;;;;;;;;4963728;28;20451;-35
2022/03/23 02:42:45;;;;;;;29.37;19.10;;;;;;;;;;4985600;28;20510;-35
2022/03/23 02:45:11;;;;;;;31.43;18.60;;;;;;;;;;4988414;28;20612;-35
2022/03/23 02:47:37;;;;;;;32.43;18.83;;;;;;;;;;4982337;28;20847;-35
2022/03/23 02:50:03;;;;;;;29.53;17.80;;;;;;;;;;4982786;28;20427;-35
2022/03/23 02:52:31;;;;;;;34.23;18.50;;;;;;;;;;4986897;28;20419;-35
2022/03/23 03:03:25;;;;;;;30.10;18.27;;;;;;;;;;4986478;28;20442;-35
2022/03/23 03:05:51;;;;;;;33.73;18.67;;;;;;;;;;4981982;28;20432;-35
2022/03/23 03:11:02;;;;;;;29.33;17.93;;;;;;;;;;4985026;28;20594;-35
2022/03/23 03:13:29;;;;;;;30.73;18.40;;;;;;;;;;4988144;28;20431;-35
2022/03/23 03:16:00;;;;;;;30.07;17.70;;;;;;;;;;4987434;28;20483;-36
2022/03/23 03:18:26;;;;;;;27.93;18.03;;;;;;;;;;4983082;28;21134;-35
2022/03/23 03:20:52;;;;;;;32.23;18.27;;;;;;;;;;4981609;28;20654;-35
2022/03/23 03:23:18;;;;;;;29.67;18.60;;;;;;;;;;4983981;28;20429;-35
2022/03/23 03:25:44;;;;;;;28.63;17.83;;;;;;;;;;4984560;28;20981;-36
2022/03/23 03:28:10;;;;;;;29.47;17.67;;;;;;;;;;4983291;28;20427;-35
2022/03/23 03:30:37;;;;;;;25.47;16.77;;;;;;;;;;4981002;28;20448;-36
2022/03/23 03:33:03;;;;;;;30.93;16.80;;;;;;;;;;4985353;28;20655;-35
2022/03/23 03:35:29;;;;;;;27.80;16.67;;;;;;;;;;4980465;28;20419;-36
2022/03/23 03:37:55;;;;;;;26.33;17.57;;;;;;;;;;4981122;28;20632;-35
2022/03/23 03:40:21;;;;;;;29.20;16.63;;;;;;;;;;4983393;28;20524;-36
2022/03/23 03:42:47;;;;;;;25.87;16.03;;;;;;;;;;4986803;28;21006;-35
2022/03/23 03:45:13;;;;;;;27.10;16.77;;;;;;;;;;4979274;28;21013;-36
2022/03/23 03:47:39;;;;;;;26.30;16.97;;;;;;;;;;4962677;28;21223;-35
2022/03/23 03:50:06;;;;;;;29.00;16.47;;;;;;;;;;4985232;28;21055;-35
2022/03/23 03:52:32;;;;;;;26.13;16.07;;;;;;;;;;4984961;28;20477;-36
2022/03/23 03:54:58;;;;;;;27.33;15.93;;;;;;;;;;4983948;28;20439;-35
2022/03/23 03:57:24;;;;;;;25.83;16.93;;;;;;;;;;4983893;28;20455;-35
2022/03/23 03:59:50;;;;;;;26.47;15.60;;;;;;;;;;4982301;28;20447;-35
2022/03/23 04:02:16;;;;;;;24.27;15.83;;;;;;;;;;4984295;28;20711;-35
2022/03/23 04:04:42;;;;;;;25.40;15.57;;;;;;;;;;4981830;28;20746;-35
2022/03/23 04:07:08;;;;;;;26.60;16.47;;;;;;;;;;4984745;28;21142;-35
2022/03/23 04:09:35;;;;;;;24.10;15.03;;;;;;;;;;4980103;28;21688;-36
2022/03/23 04:12:01;;;;;;;28.17;16.37;;;;;;;;;;4983799;28;20424;-35
2022/03/23 04:14:27;;;;;;;26.33;16.30;;;;;;;;;;4982460;28;20434;-36
2022/03/23 04:16:53;;;;;;;25.33;14.97;;;;;;;;;;4982617;28;20592;-36
2022/03/23 04:19:19;;;;;;;25.30;15.50;;;;;;;;;;4984835;28;20451;-35
2022/03/23 04:21:45;;;;;;;26.00;14.67;;;;;;;;;;4978456;28;20438;-36
2022/03/23 04:24:12;;;;;;;27.17;15.83;;;;;;;;;;4982986;28;21029;-35
2022/03/23 04:26:38;;;;;;;22.67;15.10;;;;;;;;;;4969305;28;21023;-36
2022/03/23 04:29:04;;;;;;;28.27;16.07;;;;;;;;;;4965244;28;20439;-35
2022/03/23 04:31:30;;;;;;;29.00;16.27;;;;;;;;;;4982469;28;20441;-36
2022/03/23 04:33:56;;;;;;;25.90;15.53;;;;;;;;;;4983326;28;20458;-35
2022/03/23 04:36:22;;;;;;;25.03;16.13;;;;;;;;;;4982054;28;20543;-36
2022/03/23 04:38:48;;;;;;;26.50;15.07;;;;;;;;;;4984879;28;20458;-36
2022/03/23 04:41:15;;;;;;;28.27;16.17;;;;;;;;;;4988865;28;20994;-36
2022/03/23 04:43:41;;;;;;;27.77;14.53;;;;;;;;;;4990775;28;20458;-36
2022/03/23 04:46:07;;;;;;;26.00;14.23;;;;;;;;;;4989184;28;21032;-35
2022/03/23 04:48:33;;;;;;;27.33;14.43;;;;;;;;;;4986088;28;20431;-36
2022/03/23 04:51:00;;;;;;;25.83;14.77;;;;;;;;;;4986181;28;20428;-36
2022/03/23 04:53:27;;;;;;;24.73;14.50;;;;;;;;;;4988646;28;20783;-36
2022/03/23 04:55:53;;;;;;;23.63;14.80;;;;;;;;;;4991082;28;20455;-35
2022/03/23 04:58:19;;;;;;;24.10;14.63;;;;;;;;;;4989086;28;20530;-35
2022/03/23 05:00:45;;;;;;;24.53;14.73;;;;;;;;;;4986863;28;20566;-35
2022/03/23 05:03:13;;;;;;;26.00;15.73;;;;;;;;;;4991505;28;20486;-36
2022/03/23 05:05:39;;;;;;;24.97;14.53;;;;;;;;;;4994353;28;20414;-36
2022/03/23 05:08:05;;;;;;;25.17;14.90;;;;;;;;;;4992490;28;21409;-35
2022/03/23 05:10:32;;;;;;;23.50;14.77;;;;;;;;;;4972127;28;20469;-36
2022/03/23 05:12:58;;;;;;;24.50;14.73;;;;;;;;;;4985039;28;20431;-35
2022/03/23 05:15:24;;;;;;;21.70;14.60;;;;;;;;;;4992414;28;20431;-35
2022/03/23 05:17:50;;;;;;;25.83;14.50;;;;;;;;;;4987901;28;20438;-36
2022/03/23 05:20:18;;;;;;;21.87;13.63;;;;;;;;;;4988708;28;20462;-36
2022/03/23 05:22:44;;;;;;;22.30;14.43;;;;;;;;;;4990358;28;21242;-35
2022/03/23 05:25:11;;;;;;;21.37;13.03;;;;;;;;;;4989707;28;20419;-36
2022/03/23 05:27:38;;;;;;;21.73;13.47;;;;;;;;;;4984376;28;20419;-36
2022/03/23 05:30:07;;;;;;;22.53;13.97;;;;;;;;;;4986391;28;20459;-36
2022/03/23 05:32:33;;;;;;;21.77;13.37;;;;;;;;;;4989623;28;20753;-35
2022/03/23 05:34:59;;;;;;;27.30;15.60;;;;;;;;;;4988526;28;20546;-36
2022/03/23 05:37:25;;;;;;;23.00;13.57;;;;;;;;;;4985470;28;20427;-36
2022/03/23 05:39:51;;;;;;;25.23;14.07;;;;;;;;;;4998991;28;20463;-38
2022/03/23 05:42:17;;;;;;;24.00;14.03;;;;;;;;;;4990554;28;20427;-37
2022/03/23 05:44:45;;;;;;;21.87;12.97;;;;;;;;;;4987189;28;20419;-37
2022/03/23 05:47:11;;;;;;;25.30;13.93;;;;;;;;;;4987496;28;20435;-37
2022/03/23 05:49:37;;;;;;;28.60;15.80;;;;;;;;;;4989709;28;20419;-37
2022/03/23 05:52:03;;;;;;;33.67;15.90;;;;;;;;;;4985619;28;20488;-37
2022/03/23 05:54:29;;;;;;;23.43;14.47;;;;;;;;;;4985990;28;20852;-37
2022/03/23 05:56:56;;;;;;;25.50;14.63;;;;;;;;;;4980633;28;20636;-37
2022/03/23 05:59:22;;;;;;;24.67;14.00;;;;;;;;;;4969972;28;20512;-37
2022/03/23 06:01:48;;;;;;;22.30;13.47;;;;;;;;;;4985021;28;20423;-37
2022/03/23 06:04:14;;;;;;;22.00;13.83;;;;;;;;;;4986073;28;20424;-36
2022/03/23 06:06:41;;;;;;;25.47;15.10;;;;;;;;;;4983859;28;21341;-35
2022/03/23 06:09:07;;;;;;;24.20;13.73;;;;;;;;;;4978890;28;20944;-36
2022/03/23 06:11:33;;;;;;;26.03;13.20;;;;;;;;;;4983464;28;20439;-36
2022/03/23 06:13:59;;;;;;;24.37;14.07;;;;;;;;;;4988054;28;20922;-36
2022/03/23 06:16:25;;;;;;;28.20;14.03;;;;;;;;;;4985173;28;20647;-37
2022/03/23 06:18:51;;;;;;;21.80;13.87;;;;;;;;;;4983608;28;20724;-36
2022/03/23 06:21:17;;;;;;;25.87;14.27;;;;;;;;;;4985403;28;20491;-36
2022/03/23 06:23:43;;;;;;;23.13;13.60;;;;;;;;;;4983939;28;20420;-36
2022/03/23 06:26:10;;;;;;;22.50;13.43;;;;;;;;;;4985621;28;20489;-35
2022/03/23 06:28:36;;;;;;;22.30;13.67;;;;;;;;;;4984592;28;20431;-36
2022/03/23 06:31:02;;;;;;;24.70;13.30;;;;;;;;;;4986692;28;20640;-36
2022/03/23 06:33:28;;;;;;;25.57;14.33;;;;;;;;;;4994242;28;20429;-38
2022/03/23 06:35:54;;;;;;;22.17;13.63;;;;;;;;;;4969677;28;20615;-37
2022/03/23 06:38:21;;;;;;;22.73;13.33;;;;;;;;;;4992090;28;21334;-37
2022/03/23 06:40:47;;;;;;;21.50;13.83;;;;;;;;;;4985543;28;21026;-37
2022/03/23 06:43:13;;;;;;;23.23;13.87;;;;;;;;;;4986882;28;20590;-37
2022/03/23 06:45:40;;;;;;;23.30;13.93;;;;;;;;;;4986812;28;21353;-37
2022/03/23 06:48:07;;;;;;;25.53;13.90;;;;;;;;;;4983223;28;21182;-37
2022/03/23 06:50:34;;;;;;;25.70;13.53;;;;;;;;;;4986141;28;20415;-37
2022/03/23 06:53:00;;;;;;;29.83;13.63;;;;;;;;;;4987466;28;20435;-37
2022/03/23 06:55:26;;;;;;;27.03;14.30;;;;;;;;;;4968475;28;20977;-37
2022/03/23 06:57:52;;;;;;;22.07;13.93;;;;;;;;;;4986137;28;20773;-37
2022/03/23 07:00:18;;;;;;;22.93;14.03;;;;;;;;;;4993824;28;20466;-37
2022/03/23 07:02:45;;;;;;;28.67;14.07;;;;;;;;;;4980955;28;20419;-38
2022/03/23 07:05:12;;;;;;;25.73;13.60;;;;;;;;;;4967169;28;21046;-37
2022/03/23 07:09:30;;;;;;;23.27;13.87;;;;;;;;;;4981185;28;20428;-38
2022/03/23 07:10:25;;;;;;;25.13;12.87;;;;;;;;;;4985497;28;20426;-38
2022/03/23 07:12:51;;;;;;;20.10;13.67;;;;;;;;;;4987956;28;20502;-36
2022/03/23 07:15:17;;;;;;;24.43;13.97;;;;;;;;;;4985317;28;20422;-37
2022/03/23 07:17:43;;;;;;;21.70;13.90;;;;;;;;;;4983381;28;20459;-37
2022/03/23 07:20:09;;;;;;;24.63;13.97;;;;;;;;;;4985172;28;20544;-37
2022/03/23 07:22:35;;;;;;;22.37;13.80;;;;;;;;;;4983063;28;20952;-37
2022/03/23 07:25:02;;;;;;;25.90;14.40;;;;;;;;;;4980646;28;20728;-37
2022/03/23 07:27:28;;;;;;;23.17;14.03;;;;;;;;;;4984240;28;20423;-38
2022/03/23 07:29:54;;;;;;;22.60;12.87;;;;;;;;;;4985182;28;20581;-37
2022/03/23 07:32:20;;;;;;;24.47;13.93;;;;;;;;;;4983022;28;20500;-38
2022/03/23 07:34:46;;;;;;;24.23;13.77;;;;;;;;;;4985949;28;20761;-37
2022/03/23 07:37:12;;;;;;;28.00;14.20;;;;;;;;;;4980093;28;20821;-36
2022/03/23 07:39:39;;;;;;;23.07;13.93;;;;;;;;;;4978904;28;20451;-36
2022/03/23 07:42:05;;;;;;;24.47;14.80;;;;;;;;;;4983860;28;20511;-36
2022/03/23 07:44:34;;;;;;;25.23;14.87;;;;;;;;;;4988564;28;21039;-36
2022/03/23 07:47:01;;;;;;;29.97;15.10;;;;;;;;;;4981538;28;21507;-36
2022/03/23 07:49:27;;;;;;;24.30;13.97;;;;;;;;;;4978661;28;20554;-37
2022/03/23 07:51:53;;;;;;;22.97;13.77;;;;;;;;;;4976110;28;21549;-37
2022/03/23 07:54:20;;;;;;;21.67;14.60;;;;;;;;;;4980088;28;20430;-37
2022/03/23 07:56:46;;;;;;;25.70;14.77;;;;;;;;;;4958921;28;20909;-37
2022/03/23 07:59:12;;;;;;;23.13;15.10;;;;;;;;;;4976849;28;20227;-37
2022/03/23 08:01:38;;;;;;;23.30;14.77;;;;;;;;;;4999649;28;20204;-37
2022/03/23 08:04:05;;;;;;;25.07;14.83;;;;;;;;;;5014415;28;20179;-44
2022/03/23 08:06:35;;;;;;;24.10;14.57;;;;;;;;;;5002462;28;20168;-36
2022/03/23 08:09:02;;;;;;;25.83;14.43;;;;;;;;;;5004962;28;20382;-36
2022/03/23 08:11:28;;;;;;;29.00;15.37;;;;;;;;;;5005591;28;20288;-36
2022/03/23 08:13:54;;;;;;;28.70;16.13;;;;;;;;;;4991433;28;20671;-37
2022/03/23 08:16:20;;;;;;;24.77;15.47;;;;;;;;;;5003484;28;20250;-37
2022/03/23 08:18:46;;;;;;;23.67;14.90;;;;;;;;;;5000798;28;20182;-37
2022/03/23 08:21:12;;;;;;;27.00;16.50;;;;;;;;;;5000715;28;20207;-37
2022/03/23 08:23:40;;;;;;;25.20;15.93;;;;;;;;;;5005356;28;20172;-37
2022/03/23 08:26:09;;;;;;;27.53;15.90;;;;;;;;;;4989934;28;20179;-36
2022/03/23 08:28:36;;;;;;;26.90;17.47;;;;;;;;;;5006252;28;20180;-38
2022/03/23 08:31:02;;;;;;;29.27;16.60;;;;;;;;;;4977244;28;20199;-37
2022/03/23 08:33:32;;;;;;;26.40;17.00;;;;;;;;;;5001474;28;20664;-37
2022/03/23 08:35:59;;;;;;;22.67;16.27;;;;;;;;;;5002005;28;20179;-37
2022/03/23 08:38:25;;;;;;;28.63;17.73;;;;;;;;;;5006162;28;20700;-38
2022/03/23 08:40:51;;;;;;;26.07;17.27;;;;;;;;;;5000700;28;20203;-37
2022/03/23 08:43:17;;;;;;;22.63;15.87;;;;;;;;;;5005035;28;20186;-37
2022/03/23 08:45:43;;;;;;;20.57;15.50;;;;;;;;;;4987328;28;20554;-37
2022/03/23 08:48:09;;;;;;;29.10;17.47;;;;;;;;;;4999922;28;20180;-37
2022/03/23 08:50:36;;;;;;;24.90;17.10;;;;;;;;;;5001265;28;20196;-37
2022/03/23 08:53:03;;;;;;;27.30;17.40;;;;;;;;;;5004263;28;20626;-37
2022/03/23 08:55:29;;;;;;;24.80;17.20;;;;;;;;;;5001430;28;20322;-37
2022/03/23 08:57:55;;;;;;;25.07;17.07;;;;;;;;;;4999923;28;20180;-37
2022/03/23 09:00:22;;;;;;;25.90;17.67;;;;;;;;;;5011239;28;20219;-37
2022/03/23 09:02:48;;;;;;;28.43;17.83;;;;;;;;;;5011166;28;20402;-37
2022/03/23 09:05:15;;;;;;;28.03;18.33;;;;;;;;;;4997615;28;20323;-37
2022/03/23 09:07:42;;;;;;;30.43;19.13;;;;;;;;;;4998709;28;20522;-37
2022/03/23 09:10:08;;;;;;;30.83;18.47;;;;;;;;;;5002396;28;20947;-37
2022/03/23 09:12:34;;;;;;;28.80;18.40;;;;;;;;;;5002511;28;20271;-37
2022/03/23 09:15:01;;;;;;;25.07;19.37;;;;;;;;;;5004478;28;20176;-37
2022/03/23 09:17:27;;;;;;;29.43;18.53;;;;;;;;;;4989625;28;20537;-37
2022/03/23 09:19:55;;;;;;;27.73;19.17;;;;;;;;;;5005213;28;20200;-37
2022/03/23 09:22:21;;;;;;;27.20;18.57;;;;;;;;;;5005441;28;20185;-36
2022/03/23 09:24:48;;;;;;;27.17;19.60;;;;;;;;;;5006297;28;20172;-37
2022/03/23 09:27:14;;;;;;;27.23;18.70;;;;;;;;;;5010970;28;20263;-37
2022/03/23 09:29:40;;;;;;;28.30;20.87;;;;;;;;;;5009363;28;20665;-37
2022/03/23 09:32:12;;;;;;;31.40;20.23;;;;;;;;;;4985749;28;20837;-37
2022/03/23 09:34:38;;;;;;;30.40;19.83;;;;;;;;;;5006253;28;20327;-37
2022/03/23 09:39:50;;;;;;;26.10;19.03;;;;;;;;;;5010104;28;20276;-37
2022/03/23 09:42:18;;;;;;;29.27;20.07;;;;;;;;;;5009021;28;20725;-36
2022/03/23 09:44:45;;;;;;;23.47;19.07;;;;;;;;;;5008257;28;20443;-36
2022/03/23 09:47:11;;;;;;;25.83;19.63;;;;;;;;;;5010053;28;20760;-36
2022/03/23 09:49:38;;;;;;;26.00;19.77;;;;;;;;;;5006080;28;20199;-37
2022/03/23 09:52:07;;;;;;;29.30;20.37;;;;;;;;;;5008833;28;20180;-37
2022/03/23 09:54:34;;;;;;;29.47;20.10;;;;;;;;;;5009331;28;20259;-38
2022/03/23 09:57:00;;;;;;;28.53;21.30;;;;;;;;;;5008595;28;20433;-37
2022/03/23 09:59:26;;;;;;;28.67;20.90;;;;;;;;;;5008531;28;20955;-37
2022/03/23 10:01:52;;;;;;;31.27;22.17;;;;;;;;;;4989012;28;21008;-37
2022/03/23 10:04:18;;;;;;;34.77;22.33;;;;;;;;;;5008235;28;20171;-37
2022/03/23 10:06:48;;;;;;;26.97;22.00;;;;;;;;;;5008432;28;20172;-37
2022/03/23 10:09:27;;;;;;;31.77;21.63;;;;;;;;;;5008523;28;20379;-37
2022/03/23 10:12:11;;;;;;;31.07;21.53;;;;;;;;;;5006703;28;20226;-37
2022/03/23 10:14:56;;;;;;;26.70;20.27;;;;;;;;;;5006581;28;20172;-37
2022/03/23 10:17:31;;;;;;;32.20;22.17;;;;;;;;;;5009032;28;20186;-37
2022/03/23 10:19:57;;;;;;;30.77;21.53;;;;;;;;;;5007938;28;21045;-37
2022/03/23 10:22:26;;;;;;;27.87;21.33;;;;;;;;;;4988159;28;20173;-37
2022/03/23 10:24:52;;;;;;;28.77;21.63;;;;;;;;;;5008680;28;20175;-38
2022/03/23 10:27:22;;;;;;;29.20;20.47;;;;;;;;;;5006173;28;20542;-37
2022/03/23 10:29:51;;;;;;;27.93;20.90;;;;;;;;;;5006317;28;20176;-37
2022/03/23 10:32:20;;;;;;;29.67;20.63;;;;;;;;;;5005845;28;20194;-38
2022/03/23 10:34:47;;;;;;;27.17;21.20;;;;;;;;;;5009267;28;20179;-38
2022/03/23 10:37:16;;;;;;;28.90;20.27;;;;;;;;;;5003734;28;20200;-37
2022/03/23 10:39:42;;;;;;;34.23;21.57;;;;;;;;;;5004060;28;20284;-37
2022/03/23 10:42:10;;;;;;;26.03;20.43;;;;;;;;;;4984586;28;20304;-37
2022/03/23 10:44:36;;;;;;;29.07;21.23;;;;;;;;;;5007499;28;20882;-37
2022/03/23 10:47:03;;;;;;;27.40;22.00;;;;;;;;;;5005759;28;20246;-39
2022/03/23 10:49:39;;;;;;;31.77;21.63;;;;;;;;;;5005723;28;20480;-38
2022/03/23 10:52:15;;;;;;;27.67;21.50;;;;;;;;;;5001281;28;20561;-37
2022/03/23 10:54:53;;;;;;;28.30;21.27;;;;;;;;;;5001604;28;20168;-37
2022/03/23 10:57:20;;;;;;;28.83;22.57;;;;;;;;;;4983785;28;20184;-37
2022/03/23 10:59:46;;;;;;;29.90;21.63;;;;;;;;;;5005742;28;20203;-37
2022/03/23 11:02:13;;;;;;;28.87;21.23;;;;;;;;;;5004825;28;21083;-38
2022/03/23 11:04:42;;;;;;;25.23;19.60;;;;;;;;;;4999878;28;20216;-38
2022/03/23 11:07:22;;;;;;;25.03;19.63;;;;;;;;;;5002328;28;20762;-37
2022/03/23 11:18:13;;;;;;;23.97;18.33;;;;;;;;;;5004670;28;20242;-38
2022/03/23 11:21:00;;;;;;;24.70;18.13;;;;;;;;;;5006117;28;20204;-38
2022/03/23 11:23:26;;;;;;;27.73;18.53;;;;;;;;;;5003510;28;20175;-37
2022/03/23 11:25:56;;;;;;;29.67;20.57;;;;;;;;;;5002259;28;20261;-38
2022/03/23 11:28:22;;;;;;;24.97;19.10;;;;;;;;;;5005809;28;20677;-37
2022/03/23 11:30:50;;;;;;;24.00;18.67;;;;;;;;;;5000048;28;20627;-37
2022/03/23 11:33:17;;;;;;;34.40;19.07;;;;;;;;;;5001615;28;20211;-38
2022/03/23 11:35:48;;;;;;;23.87;16.43;;;;;;;;;;5002805;28;20218;-37
2022/03/23 11:38:15;;;;;;;26.93;20.47;;;;;;;;;;4995350;28;21388;-38
2022/03/23 11:40:42;;;;;;;27.70;18.43;;;;;;;;;;4994496;28;20331;-38
2022/03/23 11:43:10;;;;;;;23.60;16.30;;;;;;;;;;4981497;28;20230;-38
2022/03/23 11:45:38;;;;;;;22.17;16.07;;;;;;;;;;5008974;28;20187;-37
2022/03/23 11:48:11;;;;;;;18.57;14.50;;;;;;;;;;5002752;28;20172;-38
2022/03/23 11:50:56;;;;;;;26.53;16.00;;;;;;;;;;5006181;28;20275;-38
2022/03/23 11:53:31;;;;;;;18.53;13.43;;;;;;;;;;4986928;28;20181;-37
2022/03/23 11:55:58;;;;;;;17.13;13.13;;;;;;;;;;5005977;28;20169;-38
2022/03/23 11:58:33;;;;;;;19.67;14.20;;;;;;;;;;5001578;28;20191;-37
2022/03/23 12:01:12;;;;;;;20.20;16.23;;;;;;;;;;4998662;28;20345;-39
2022/03/23 12:03:41;;;;;;;19.87;15.90;;;;;;;;;;5008292;28;20187;-37
2022/03/23 12:06:14;;;;;;;20.80;14.97;;;;;;;;;;5005542;28;20624;-38
2022/03/23 12:08:59;;;;;;;25.47;16.37;;;;;;;;;;5004506;28;21190;-38
2022/03/23 12:11:43;;;;;;;24.87;17.13;;;;;;;;;;5006699;28;20175;-38
2022/03/23 12:14:19;;;;;;;21.40;16.07;;;;;;;;;;5001794;28;20160;-38
2022/03/23 12:16:51;;;;;;;19.67;15.63;;;;;;;;;;5007427;28;20738;-37
2022/03/23 12:19:18;;;;;;;20.90;14.93;;;;;;;;;;4995868;28;20283;-37
2022/03/23 12:21:49;;;;;;;20.10;15.63;;;;;;;;;;4985923;28;21319;-37
2022/03/23 12:24:26;;;;;;;20.17;15.27;;;;;;;;;;5005381;28;20168;-39
2022/03/23 12:26:53;;;;;;;24.07;14.90;;;;;;;;;;5008035;28;20240;-37
2022/03/23 12:29:26;;;;;;;17.97;14.57;;;;;;;;;;5003355;28;20779;-37
2022/03/23 12:32:03;;;;;;;19.63;14.60;;;;;;;;;;4999224;28;21081;-38
2022/03/23 12:34:30;;;;;;;21.53;15.53;;;;;;;;;;5003500;28;20157;-37
2022/03/23 12:37:06;;;;;;;21.47;15.97;;;;;;;;;;5000328;28;20207;-38
2022/03/23 12:39:32;;;;;;;18.17;15.10;;;;;;;;;;5003186;28;20299;-37
2022/03/23 12:42:19;;;;;;;19.30;15.07;;;;;;;;;;5002669;28;20278;-38
2022/03/23 12:44:49;;;;;;;18.23;14.77;;;;;;;;;;4999156;28;20187;-37
2022/03/23 12:47:17;;;;;;;18.87;14.20;;;;;;;;;;5000513;28;20196;-37
2022/03/23 12:58:14;;;;;;;19.67;15.00;;;;;;;;;;5000188;28;20356;-37
2022/03/23 13:00:42;;;;;;;18.13;14.30;;;;;;;;;;5006801;28;20242;-38
2022/03/23 13:03:08;;;;;;;18.90;15.23;;;;;;;;;;5005317;28;20833;-37
2022/03/23 13:05:36;;;;;;;17.33;14.27;;;;;;;;;;5006428;28;20803;-37
2022/03/23 13:08:22;;;;;;;19.57;14.63;;;;;;;;;;5005870;28;20176;-38
2022/03/23 13:11:00;;;;;;;21.53;15.37;;;;;;;;;;5003219;28;20284;-39
2022/03/23 13:13:27;;;;;;;20.57;16.13;;;;;;;;;;5006243;28;20444;-38
2022/03/23 13:15:53;;;;;;;21.43;15.63;;;;;;;;;;5006947;28;20397;-37
2022/03/23 13:18:24;;;;;;;20.13;15.60;;;;;;;;;;5005749;28;20433;-38
2022/03/23 13:20:51;;;;;;;19.67;14.93;;;;;;;;;;5006367;28;20937;-37
2022/03/23 13:23:20;;;;;;;20.17;16.33;;;;;;;;;;5006481;28;20227;-38
2022/03/23 13:26:05;;;;;;;19.27;15.27;;;;;;;;;;5002908;28;20719;-40
2022/03/23 13:28:32;;;;;;;21.97;16.30;;;;;;;;;;5004770;28;20180;-37
2022/03/23 13:31:02;;;;;;;18.47;15.53;;;;;;;;;;5007844;28;20652;-37
2022/03/23 13:33:36;;;;;;;22.87;16.03;;;;;;;;;;5006408;28;20623;-38
2022/03/23 13:36:03;;;;;;;17.90;15.87;;;;;;;;;;5007269;28;20299;-38
2022/03/23 13:38:40;;;;;;;22.70;15.67;;;;;;;;;;5005986;28;20187;-38
2022/03/23 13:43:52;;;;;;;20.67;15.67;;;;;;;;;;5006028;28;20354;-38
2022/03/23 13:46:18;;;;;;;21.97;16.93;;;;;;;;;;4994337;28;20478;-37
2022/03/23 13:48:45;;;;;;;20.87;17.00;;;;;;;;;;4975684;28;20176;-38
2022/03/23 13:51:11;;;;;;;20.97;15.27;;;;;;;;;;5005120;28;20462;-37
2022/03/23 13:53:39;;;;;;;19.53;16.40;;;;;;;;;;5001419;28;20258;-38
2022/03/23 13:56:06;;;;;;;19.77;15.63;;;;;;;;;;5000835;28;20173;-38
2022/03/23 13:58:32;;;;;;;17.90;14.83;;;;;;;;;;5000225;28;20184;-37
2022/03/23 14:00:58;;;;;;;19.73;16.00;;;;;;;;;;5003351;28;20200;-37
2022/03/23 14:03:26;;;;;;;18.47;14.97;;;;;;;;;;5005503;28;20510;-37
2022/03/23 14:06:18;;;;;;;18.13;15.23;;;;;;;;;;4982557;28;20635;-37
2022/03/23 14:08:54;;;;;;;20.07;16.33;;;;;;;;;;5003553;28;20196;-37
2022/03/23 14:14:14;;;;;;;21.57;15.50;;;;;;;;;;5005277;28;20285;-37
2022/03/23 14:16:40;;;;;;;20.77;14.60;;;;;;;;;;5003624;28;20659;-37
2022/03/23 14:19:08;;;;;;;27.27;16.57;;;;;;;;;;5004446;28;20577;-37
2022/03/23 14:21:34;;;;;;;20.40;16.23;;;;;;;;;;5003123;28;20625;-37
2022/03/23 14:24:00;;;;;;;19.03;15.90;;;;;;;;;;4987799;28;20264;-37
2022/03/23 14:26:28;;;;;;;20.77;16.13;;;;;;;;;;5003625;28;20634;-38
2022/03/23 14:28:54;;;;;;;20.07;15.30;;;;;;;;;;5000074;28;21115;-37
2022/03/23 14:31:22;;;;;;;17.87;14.90;;;;;;;;;;4983535;28;20952;-38
2022/03/23 14:33:52;;;;;;;19.30;15.30;;;;;;;;;;5004286;28;20854;-37
2022/03/23 14:36:24;;;;;;;21.93;16.33;;;;;;;;;;5001198;28;20180;-37
2022/03/23 14:38:50;;;;;;;18.07;15.10;;;;;;;;;;5000768;28;20669;-37
2022/03/23 14:41:19;;;;;;;20.27;15.97;;;;;;;;;;5000243;28;20207;-37
2022/03/23 14:43:48;;;;;;;17.97;15.13;;;;;;;;;;4981017;28;20181;-37
2022/03/23 14:46:21;;;;;;;22.17;16.50;;;;;;;;;;4995638;28;20173;-37
2022/03/23 14:49:26;;;;;;;19.27;16.50;;;;;;;;;;4999391;28;20825;-37
2022/03/23 14:51:53;;;;;;;18.77;16.10;;;;;;;;;;4952213;28;21007;-37
2022/03/23 14:54:20;;;;;;;21.53;16.60;;;;;;;;;;5004398;28;21138;-37
2022/03/23 14:56:49;;;;;;;19.93;16.30;;;;;;;;;;5002996;28;20212;-38